sensor_id;sensor_type;location;lat;lon;timestamp;P1;durP1;ratioP1;P2;durP2;ratioP2
74898;SDS011;63458;48.210;16.338;2023-02-28T00:00:01;13.77;;;7.07;;
74898;SDS011;63458;48.210;16.338;2023-02-28T00:02:34;11.50;;;6.70;;
74898;SDS011;63458;48.210;16.338;2023-02-28T00:05:00;13.98;;;6.72;;
74898;SDS011;63458;48.210;16.338;2023-02-28T00:07:28;13.18;;;6.75;;
74898;SDS011;63458;48.210;16.338;2023-02-28T00:09:54;13.77;;;7.85;;
74898;SDS011;63458;48.210;16.338;2023-02-28T00:12:20;12.75;;;7.22;;
74898;SDS011;63458;48.210;16.338;2023-02-28T00:14:46;12.95;;;6.82;;
74898;SDS011;63458;48.210;16.338;2023-02-28T00:17:12;14.02;;;6.53;;
74898;SDS011;63458;48.210;16.338;2023-02-28T00:19:38;12.50;;;6.97;;
74898;SDS011;63458;48.210;16.338;2023-02-28T00:22:04;13.98;;;7.25;;
74898;SDS011;63458;48.210;16.338;2023-02-28T00:24:30;14.43;;;7.25;;
74898;SDS011;63458;48.210;16.338;2023-02-28T00:26:56;13.23;;;7.55;;
74898;SDS011;63458;48.210;16.338;2023-02-28T00:29:22;14.63;;;7.38;;
74898;SDS011;63458;48.210;16.338;2023-02-28T00:31:48;14.55;;;7.65;;
74898;SDS011;63458;48.210;16.338;2023-02-28T00:34:14;13.57;;;7.38;;
74898;SDS011;63458;48.210;16.338;2023-02-28T00:36:40;14.55;;;8.10;;
74898;SDS011;63458;48.210;16.338;2023-02-28T00:39:10;15.02;;;7.97;;
74898;SDS011;63458;48.210;16.338;2023-02-28T00:41:36;13.18;;;7.55;;
74898;SDS011;63458;48.210;16.338;2023-02-28T00:44:02;14.05;;;7.22;;
74898;SDS011;63458;48.210;16.338;2023-02-28T00:46:28;12.77;;;7.15;;
74898;SDS011;63458;48.210;16.338;2023-02-28T00:48:54;15.57;;;7.88;;
74898;SDS011;63458;48.210;16.338;2023-02-28T00:51:20;14.40;;;8.00;;
74898;SDS011;63458;48.210;16.338;2023-02-28T00:53:46;14.77;;;8.02;;
74898;SDS011;63458;48.210;16.338;2023-02-28T00:56:12;14.35;;;7.53;;
74898;SDS011;63458;48.210;16.338;2023-02-28T00:58:39;14.25;;;7.57;;
74898;SDS011;63458;48.210;16.338;2023-02-28T01:01:05;13.75;;;7.40;;
74898;SDS011;63458;48.210;16.338;2023-02-28T01:03:31;16.80;;;8.35;;
74898;SDS011;63458;48.210;16.338;2023-02-28T01:05:57;14.25;;;7.85;;
74898;SDS011;63458;48.210;16.338;2023-02-28T01:08:23;15.55;;;8.27;;
74898;SDS011;63458;48.210;16.338;2023-02-28T01:10:51;13.68;;;6.75;;
74898;SDS011;63458;48.210;16.338;2023-02-28T01:13:17;16.52;;;7.80;;
74898;SDS011;63458;48.210;16.338;2023-02-28T01:15:46;13.90;;;6.88;;
74898;SDS011;63458;48.210;16.338;2023-02-28T01:18:14;15.27;;;7.78;;
74898;SDS011;63458;48.210;16.338;2023-02-28T01:20:40;14.43;;;6.90;;
74898;SDS011;63458;48.210;16.338;2023-02-28T01:23:07;14.55;;;7.28;;
74898;SDS011;63458;48.210;16.338;2023-02-28T01:25:36;14.27;;;7.78;;
74898;SDS011;63458;48.210;16.338;2023-02-28T01:28:02;11.60;;;7.43;;
74898;SDS011;63458;48.210;16.338;2023-02-28T01:30:28;14.52;;;7.55;;
74898;SDS011;63458;48.210;16.338;2023-02-28T01:32:54;13.90;;;8.00;;
74898;SDS011;63458;48.210;16.338;2023-02-28T01:35:20;13.90;;;6.82;;
74898;SDS011;63458;48.210;16.338;2023-02-28T01:37:46;14.90;;;7.63;;
74898;SDS011;63458;48.210;16.338;2023-02-28T01:40:12;12.93;;;6.78;;
74898;SDS011;63458;48.210;16.338;2023-02-28T01:42:39;15.32;;;7.55;;
74898;SDS011;63458;48.210;16.338;2023-02-28T01:45:16;14.20;;;8.00;;
74898;SDS011;63458;48.210;16.338;2023-02-28T01:47:44;15.27;;;7.88;;
74898;SDS011;63458;48.210;16.338;2023-02-28T01:50:12;14.68;;;7.75;;
74898;SDS011;63458;48.210;16.338;2023-02-28T01:52:40;14.32;;;7.55;;
74898;SDS011;63458;48.210;16.338;2023-02-28T01:55:07;15.15;;;7.53;;
74898;SDS011;63458;48.210;16.338;2023-02-28T01:57:34;15.45;;;8.75;;
74898;SDS011;63458;48.210;16.338;2023-02-28T02:00:12;15.18;;;7.75;;
74898;SDS011;63458;48.210;16.338;2023-02-28T02:02:43;13.80;;;7.90;;
74898;SDS011;63458;48.210;16.338;2023-02-28T02:05:15;16.25;;;8.10;;
74898;SDS011;63458;48.210;16.338;2023-02-28T02:07:43;13.15;;;7.63;;
74898;SDS011;63458;48.210;16.338;2023-02-28T02:35:48;16.50;;;8.55;;
74898;SDS011;63458;48.210;16.338;2023-02-28T02:46:12;15.82;;;8.57;;
74898;SDS011;63458;48.210;16.338;2023-02-28T02:48:40;13.13;;;7.82;;
74898;SDS011;63458;48.210;16.338;2023-02-28T02:51:10;15.32;;;7.88;;
74898;SDS011;63458;48.210;16.338;2023-02-28T02:53:41;15.10;;;7.57;;
74898;SDS011;63458;48.210;16.338;2023-02-28T02:56:07;16.67;;;8.63;;
74898;SDS011;63458;48.210;16.338;2023-02-28T02:58:35;14.90;;;8.02;;
74898;SDS011;63458;48.210;16.338;2023-02-28T03:01:07;16.20;;;9.07;;
74898;SDS011;63458;48.210;16.338;2023-02-28T03:03:34;13.65;;;8.35;;
74898;SDS011;63458;48.210;16.338;2023-02-28T03:06:01;15.38;;;8.63;;
74898;SDS011;63458;48.210;16.338;2023-02-28T03:08:28;13.85;;;7.93;;
74898;SDS011;63458;48.210;16.338;2023-02-28T03:10:56;15.32;;;7.85;;
74898;SDS011;63458;48.210;16.338;2023-02-28T03:21:12;15.13;;;7.55;;
74898;SDS011;63458;48.210;16.338;2023-02-28T03:26:47;15.85;;;8.45;;
74898;SDS011;63458;48.210;16.338;2023-02-28T03:29:23;16.23;;;9.40;;
74898;SDS011;63458;48.210;16.338;2023-02-28T03:32:02;16.23;;;9.35;;
74898;SDS011;63458;48.210;16.338;2023-02-28T03:34:34;15.02;;;7.85;;
74898;SDS011;63458;48.210;16.338;2023-02-28T03:37:03;16.13;;;8.45;;
74898;SDS011;63458;48.210;16.338;2023-02-28T03:42:01;14.57;;;8.23;;
74898;SDS011;63458;48.210;16.338;2023-02-28T03:44:33;17.30;;;8.10;;
74898;SDS011;63458;48.210;16.338;2023-02-28T03:47:02;14.40;;;7.47;;
74898;SDS011;63458;48.210;16.338;2023-02-28T03:49:34;13.23;;;7.68;;
74898;SDS011;63458;48.210;16.338;2023-02-28T03:52:02;16.10;;;9.02;;
74898;SDS011;63458;48.210;16.338;2023-02-28T03:54:30;17.05;;;7.55;;
74898;SDS011;63458;48.210;16.338;2023-02-28T03:59:26;13.82;;;8.02;;
74898;SDS011;63458;48.210;16.338;2023-02-28T04:01:54;16.50;;;9.48;;
74898;SDS011;63458;48.210;16.338;2023-02-28T04:04:23;16.92;;;7.95;;
74898;SDS011;63458;48.210;16.338;2023-02-28T04:06:49;15.77;;;8.35;;
74898;SDS011;63458;48.210;16.338;2023-02-28T04:09:16;14.68;;;8.35;;
74898;SDS011;63458;48.210;16.338;2023-02-28T04:11:42;14.98;;;8.13;;
74898;SDS011;63458;48.210;16.338;2023-02-28T04:14:10;17.52;;;8.35;;
74898;SDS011;63458;48.210;16.338;2023-02-28T04:16:37;16.00;;;8.68;;
74898;SDS011;63458;48.210;16.338;2023-02-28T04:19:03;16.70;;;8.50;;
74898;SDS011;63458;48.210;16.338;2023-02-28T04:21:34;15.13;;;8.73;;
74898;SDS011;63458;48.210;16.338;2023-02-28T04:24:01;16.63;;;9.52;;
74898;SDS011;63458;48.210;16.338;2023-02-28T04:26:28;15.15;;;8.30;;
74898;SDS011;63458;48.210;16.338;2023-02-28T04:28:55;15.68;;;9.90;;
74898;SDS011;63458;48.210;16.338;2023-02-28T04:31:21;15.55;;;8.90;;
74898;SDS011;63458;48.210;16.338;2023-02-28T04:33:47;17.48;;;8.55;;
74898;SDS011;63458;48.210;16.338;2023-02-28T04:36:13;17.52;;;8.88;;
74898;SDS011;63458;48.210;16.338;2023-02-28T04:38:40;17.60;;;9.27;;
74898;SDS011;63458;48.210;16.338;2023-02-28T04:41:06;16.05;;;9.52;;
74898;SDS011;63458;48.210;16.338;2023-02-28T04:43:32;16.42;;;8.88;;
74898;SDS011;63458;48.210;16.338;2023-02-28T04:46:00;18.48;;;8.73;;
74898;SDS011;63458;48.210;16.338;2023-02-28T04:48:27;15.20;;;8.13;;
74898;SDS011;63458;48.210;16.338;2023-02-28T04:50:53;14.68;;;8.93;;
74898;SDS011;63458;48.210;16.338;2023-02-28T04:53:20;14.63;;;8.55;;
74898;SDS011;63458;48.210;16.338;2023-02-28T04:55:46;15.27;;;8.48;;
74898;SDS011;63458;48.210;16.338;2023-02-28T04:58:13;16.48;;;8.27;;
74898;SDS011;63458;48.210;16.338;2023-02-28T05:00:39;16.75;;;8.80;;
74898;SDS011;63458;48.210;16.338;2023-02-28T05:03:05;20.15;;;11.25;;
74898;SDS011;63458;48.210;16.338;2023-02-28T05:05:31;19.65;;;10.90;;
74898;SDS011;63458;48.210;16.338;2023-02-28T05:07:57;17.20;;;9.80;;
74898;SDS011;63458;48.210;16.338;2023-02-28T05:10:23;25.08;;;13.18;;
74898;SDS011;63458;48.210;16.338;2023-02-28T05:12:49;22.95;;;13.15;;
74898;SDS011;63458;48.210;16.338;2023-02-28T05:15:16;18.40;;;10.57;;
74898;SDS011;63458;48.210;16.338;2023-02-28T05:17:42;18.90;;;9.88;;
74898;SDS011;63458;48.210;16.338;2023-02-28T05:20:08;17.40;;;7.75;;
74898;SDS011;63458;48.210;16.338;2023-02-28T05:22:38;15.68;;;8.80;;
74898;SDS011;63458;48.210;16.338;2023-02-28T05:25:04;14.85;;;8.90;;
74898;SDS011;63458;48.210;16.338;2023-02-28T05:27:31;17.70;;;10.25;;
74898;SDS011;63458;48.210;16.338;2023-02-28T05:29:57;15.90;;;9.35;;
74898;SDS011;63458;48.210;16.338;2023-02-28T05:32:23;16.48;;;9.93;;
74898;SDS011;63458;48.210;16.338;2023-02-28T05:34:50;17.67;;;10.77;;
74898;SDS011;63458;48.210;16.338;2023-02-28T05:37:16;18.30;;;10.60;;
74898;SDS011;63458;48.210;16.338;2023-02-28T05:39:42;19.48;;;10.98;;
74898;SDS011;63458;48.210;16.338;2023-02-28T05:42:08;19.52;;;10.25;;
74898;SDS011;63458;48.210;16.338;2023-02-28T05:44:34;16.50;;;9.30;;
74898;SDS011;63458;48.210;16.338;2023-02-28T05:47:00;16.83;;;9.50;;
74898;SDS011;63458;48.210;16.338;2023-02-28T05:49:26;17.48;;;10.05;;
74898;SDS011;63458;48.210;16.338;2023-02-28T05:51:52;19.27;;;10.00;;
74898;SDS011;63458;48.210;16.338;2023-02-28T05:54:18;16.10;;;9.57;;
74898;SDS011;63458;48.210;16.338;2023-02-28T05:56:44;16.80;;;9.60;;
74898;SDS011;63458;48.210;16.338;2023-02-28T05:59:13;18.80;;;10.85;;
74898;SDS011;63458;48.210;16.338;2023-02-28T06:01:40;17.67;;;10.15;;
74898;SDS011;63458;48.210;16.338;2023-02-28T06:04:08;18.00;;;9.48;;
74898;SDS011;63458;48.210;16.338;2023-02-28T06:06:34;18.58;;;9.98;;
74898;SDS011;63458;48.210;16.338;2023-02-28T06:09:01;20.17;;;10.77;;
74898;SDS011;63458;48.210;16.338;2023-02-28T06:11:28;18.48;;;9.13;;
74898;SDS011;63458;48.210;16.338;2023-02-28T06:13:54;17.48;;;9.70;;
74898;SDS011;63458;48.210;16.338;2023-02-28T06:16:21;15.93;;;8.95;;
74898;SDS011;63458;48.210;16.338;2023-02-28T06:18:47;14.95;;;9.20;;
74898;SDS011;63458;48.210;16.338;2023-02-28T06:21:13;17.52;;;9.50;;
74898;SDS011;63458;48.210;16.338;2023-02-28T06:23:39;17.27;;;9.40;;
74898;SDS011;63458;48.210;16.338;2023-02-28T06:26:05;17.17;;;9.40;;
74898;SDS011;63458;48.210;16.338;2023-02-28T06:28:31;14.48;;;9.00;;
74898;SDS011;63458;48.210;16.338;2023-02-28T06:30:57;15.88;;;9.82;;
74898;SDS011;63458;48.210;16.338;2023-02-28T06:33:23;17.00;;;9.23;;
74898;SDS011;63458;48.210;16.338;2023-02-28T06:35:50;16.40;;;9.43;;
74898;SDS011;63458;48.210;16.338;2023-02-28T06:38:16;17.17;;;10.25;;
74898;SDS011;63458;48.210;16.338;2023-02-28T06:40:43;16.25;;;9.38;;
74898;SDS011;63458;48.210;16.338;2023-02-28T06:43:09;18.67;;;9.27;;
74898;SDS011;63458;48.210;16.338;2023-02-28T06:45:40;17.10;;;10.13;;
74898;SDS011;63458;48.210;16.338;2023-02-28T06:48:06;19.10;;;10.95;;
74898;SDS011;63458;48.210;16.338;2023-02-28T06:50:32;17.80;;;9.85;;
74898;SDS011;63458;48.210;16.338;2023-02-28T06:52:59;15.63;;;9.48;;
74898;SDS011;63458;48.210;16.338;2023-02-28T06:55:25;15.60;;;9.77;;
74898;SDS011;63458;48.210;16.338;2023-02-28T06:57:51;18.38;;;10.80;;
74898;SDS011;63458;48.210;16.338;2023-02-28T07:00:17;18.48;;;10.23;;
74898;SDS011;63458;48.210;16.338;2023-02-28T07:02:43;19.83;;;11.00;;
74898;SDS011;63458;48.210;16.338;2023-02-28T07:05:09;19.10;;;10.32;;
74898;SDS011;63458;48.210;16.338;2023-02-28T07:07:35;19.67;;;10.77;;
74898;SDS011;63458;48.210;16.338;2023-02-28T07:10:03;19.65;;;11.65;;
74898;SDS011;63458;48.210;16.338;2023-02-28T07:12:29;29.75;;;15.82;;
74898;SDS011;63458;48.210;16.338;2023-02-28T07:14:55;18.98;;;10.82;;
74898;SDS011;63458;48.210;16.338;2023-02-28T07:17:21;19.33;;;11.85;;
74898;SDS011;63458;48.210;16.338;2023-02-28T07:19:47;19.23;;;11.95;;
74898;SDS011;63458;48.210;16.338;2023-02-28T07:22:13;17.50;;;10.82;;
74898;SDS011;63458;48.210;16.338;2023-02-28T07:24:39;18.75;;;10.65;;
74898;SDS011;63458;48.210;16.338;2023-02-28T07:27:06;18.60;;;11.32;;
74898;SDS011;63458;48.210;16.338;2023-02-28T07:29:32;19.48;;;12.02;;
74898;SDS011;63458;48.210;16.338;2023-02-28T07:31:58;19.63;;;11.60;;
74898;SDS011;63458;48.210;16.338;2023-02-28T07:34:24;20.40;;;11.13;;
74898;SDS011;63458;48.210;16.338;2023-02-28T07:36:52;23.88;;;12.05;;
74898;SDS011;63458;48.210;16.338;2023-02-28T07:39:18;18.00;;;11.40;;
74898;SDS011;63458;48.210;16.338;2023-02-28T07:41:45;19.90;;;10.70;;
74898;SDS011;63458;48.210;16.338;2023-02-28T07:44:11;17.77;;;11.45;;
74898;SDS011;63458;48.210;16.338;2023-02-28T07:46:37;19.63;;;11.70;;
74898;SDS011;63458;48.210;16.338;2023-02-28T07:49:04;19.77;;;12.30;;
74898;SDS011;63458;48.210;16.338;2023-02-28T07:51:30;22.13;;;12.05;;
74898;SDS011;63458;48.210;16.338;2023-02-28T07:53:56;20.30;;;11.20;;
74898;SDS011;63458;48.210;16.338;2023-02-28T07:56:22;18.83;;;10.68;;
74898;SDS011;63458;48.210;16.338;2023-02-28T07:58:48;19.60;;;12.65;;
74898;SDS011;63458;48.210;16.338;2023-02-28T08:01:15;22.02;;;13.25;;
74898;SDS011;63458;48.210;16.338;2023-02-28T08:03:42;19.95;;;11.88;;
74898;SDS011;63458;48.210;16.338;2023-02-28T08:06:11;19.70;;;12.32;;
74898;SDS011;63458;48.210;16.338;2023-02-28T08:08:41;21.27;;;11.20;;
74898;SDS011;63458;48.210;16.338;2023-02-28T08:11:07;18.35;;;11.32;;
74898;SDS011;63458;48.210;16.338;2023-02-28T08:13:33;21.58;;;12.10;;
74898;SDS011;63458;48.210;16.338;2023-02-28T08:16:00;19.60;;;11.82;;
74898;SDS011;63458;48.210;16.338;2023-02-28T08:18:26;21.50;;;12.15;;
74898;SDS011;63458;48.210;16.338;2023-02-28T08:20:52;18.83;;;11.45;;
74898;SDS011;63458;48.210;16.338;2023-02-28T08:23:18;22.92;;;12.55;;
74898;SDS011;63458;48.210;16.338;2023-02-28T08:25:44;20.75;;;12.57;;
74898;SDS011;63458;48.210;16.338;2023-02-28T08:28:10;17.70;;;12.27;;
74898;SDS011;63458;48.210;16.338;2023-02-28T08:30:36;20.15;;;11.55;;
74898;SDS011;63458;48.210;16.338;2023-02-28T08:33:03;22.48;;;13.00;;
74898;SDS011;63458;48.210;16.338;2023-02-28T08:35:29;20.88;;;12.70;;
74898;SDS011;63458;48.210;16.338;2023-02-28T08:37:55;20.15;;;12.07;;
74898;SDS011;63458;48.210;16.338;2023-02-28T08:40:21;27.00;;;14.48;;
74898;SDS011;63458;48.210;16.338;2023-02-28T08:42:47;52.88;;;26.75;;
74898;SDS011;63458;48.210;16.338;2023-02-28T08:45:14;42.53;;;24.33;;
74898;SDS011;63458;48.210;16.338;2023-02-28T08:47:40;26.95;;;16.08;;
74898;SDS011;63458;48.210;16.338;2023-02-28T08:50:07;21.90;;;13.93;;
74898;SDS011;63458;48.210;16.338;2023-02-28T08:52:33;19.88;;;12.57;;
74898;SDS011;63458;48.210;16.338;2023-02-28T08:54:59;20.88;;;12.52;;
74898;SDS011;63458;48.210;16.338;2023-02-28T08:57:25;21.60;;;14.68;;
74898;SDS011;63458;48.210;16.338;2023-02-28T08:59:52;23.08;;;14.13;;
74898;SDS011;63458;48.210;16.338;2023-02-28T09:02:18;24.55;;;14.07;;
74898;SDS011;63458;48.210;16.338;2023-02-28T09:04:44;18.48;;;12.88;;
74898;SDS011;63458;48.210;16.338;2023-02-28T09:07:11;21.10;;;14.05;;
74898;SDS011;63458;48.210;16.338;2023-02-28T09:09:37;23.25;;;13.45;;
74898;SDS011;63458;48.210;16.338;2023-02-28T09:12:22;18.15;;;11.27;;
74898;SDS011;63458;48.210;16.338;2023-02-28T09:14:48;15.43;;;10.60;;
74898;SDS011;63458;48.210;16.338;2023-02-28T09:17:15;17.55;;;11.02;;
74898;SDS011;63458;48.210;16.338;2023-02-28T09:19:41;20.25;;;11.00;;
74898;SDS011;63458;48.210;16.338;2023-02-28T09:22:07;19.25;;;11.60;;
74898;SDS011;63458;48.210;16.338;2023-02-28T09:24:34;15.45;;;10.55;;
74898;SDS011;63458;48.210;16.338;2023-02-28T09:27:01;15.27;;;10.57;;
74898;SDS011;63458;48.210;16.338;2023-02-28T09:29:27;17.08;;;11.45;;
74898;SDS011;63458;48.210;16.338;2023-02-28T09:31:53;18.98;;;12.27;;
74898;SDS011;63458;48.210;16.338;2023-02-28T09:34:19;18.85;;;11.73;;
74898;SDS011;63458;48.210;16.338;2023-02-28T09:36:45;17.17;;;10.98;;
74898;SDS011;63458;48.210;16.338;2023-02-28T09:39:11;18.10;;;12.60;;
74898;SDS011;63458;48.210;16.338;2023-02-28T09:41:41;18.42;;;11.70;;
74898;SDS011;63458;48.210;16.338;2023-02-28T09:44:19;18.70;;;11.40;;
74898;SDS011;63458;48.210;16.338;2023-02-28T09:46:47;18.98;;;11.27;;
74898;SDS011;63458;48.210;16.338;2023-02-28T09:49:15;19.52;;;11.48;;
74898;SDS011;63458;48.210;16.338;2023-02-28T09:54:13;15.90;;;10.25;;
74898;SDS011;63458;48.210;16.338;2023-02-28T09:56:43;16.45;;;10.57;;
74898;SDS011;63458;48.210;16.338;2023-02-28T10:01:42;16.67;;;10.25;;
74898;SDS011;63458;48.210;16.338;2023-02-28T10:06:41;18.75;;;11.43;;
74898;SDS011;63458;48.210;16.338;2023-02-28T10:09:11;18.92;;;10.82;;
74898;SDS011;63458;48.210;16.338;2023-02-28T10:11:39;17.92;;;12.93;;
74898;SDS011;63458;48.210;16.338;2023-02-28T10:22:00;18.88;;;12.48;;
74898;SDS011;63458;48.210;16.338;2023-02-28T10:26:58;18.20;;;11.43;;
74898;SDS011;63458;48.210;16.338;2023-02-28T10:29:26;18.52;;;13.93;;
74898;SDS011;63458;48.210;16.338;2023-02-28T10:31:52;23.52;;;13.55;;
74898;SDS011;63458;48.210;16.338;2023-02-28T10:34:18;20.15;;;12.23;;
74898;SDS011;63458;48.210;16.338;2023-02-28T10:36:44;18.73;;;11.30;;
74898;SDS011;63458;48.210;16.338;2023-02-28T10:41:56;16.58;;;11.60;;
74898;SDS011;63458;48.210;16.338;2023-02-28T10:44:23;17.67;;;11.55;;
74898;SDS011;63458;48.210;16.338;2023-02-28T10:46:49;19.23;;;11.82;;
74898;SDS011;63458;48.210;16.338;2023-02-28T10:49:23;19.63;;;12.73;;
74898;SDS011;63458;48.210;16.338;2023-02-28T10:51:54;17.65;;;11.30;;
74898;SDS011;63458;48.210;16.338;2023-02-28T10:54:23;19.90;;;11.90;;
74898;SDS011;63458;48.210;16.338;2023-02-28T10:57:15;19.52;;;11.75;;
74898;SDS011;63458;48.210;16.338;2023-02-28T10:59:41;16.45;;;10.73;;
74898;SDS011;63458;48.210;16.338;2023-02-28T11:04:52;19.20;;;11.35;;
74898;SDS011;63458;48.210;16.338;2023-02-28T11:07:19;17.35;;;11.90;;
74898;SDS011;63458;48.210;16.338;2023-02-28T11:09:49;17.80;;;12.02;;
74898;SDS011;63458;48.210;16.338;2023-02-28T11:12:29;18.92;;;12.15;;
74898;SDS011;63458;48.210;16.338;2023-02-28T11:15:04;19.42;;;12.80;;
74898;SDS011;63458;48.210;16.338;2023-02-28T11:17:31;17.98;;;13.25;;
74898;SDS011;63458;48.210;16.338;2023-02-28T11:19:58;16.77;;;12.38;;
74898;SDS011;63458;48.210;16.338;2023-02-28T11:22:28;18.17;;;11.40;;
74898;SDS011;63458;48.210;16.338;2023-02-28T11:24:56;18.98;;;12.43;;
74898;SDS011;63458;48.210;16.338;2023-02-28T11:27:45;16.63;;;11.70;;
74898;SDS011;63458;48.210;16.338;2023-02-28T11:30:35;16.85;;;12.27;;
74898;SDS011;63458;48.210;16.338;2023-02-28T11:32:59;17.35;;;12.32;;
74898;SDS011;63458;48.210;16.338;2023-02-28T11:35:30;18.23;;;12.32;;
74898;SDS011;63458;48.210;16.338;2023-02-28T11:37:57;22.77;;;14.52;;
74898;SDS011;63458;48.210;16.338;2023-02-28T11:45:22;18.38;;;14.05;;
74898;SDS011;63458;48.210;16.338;2023-02-28T12:03:28;16.27;;;11.43;;
74898;SDS011;63458;48.210;16.338;2023-02-28T12:08:45;16.42;;;10.50;;
74898;SDS011;63458;48.210;16.338;2023-02-28T12:21:31;14.25;;;9.57;;
74898;SDS011;63458;48.210;16.338;2023-02-28T12:26:51;14.48;;;9.20;;
74898;SDS011;63458;48.210;16.338;2023-02-28T12:29:17;17.33;;;9.48;;
74898;SDS011;63458;48.210;16.338;2023-02-28T12:31:47;15.35;;;9.43;;
74898;SDS011;63458;48.210;16.338;2023-02-28T12:34:19;15.35;;;10.45;;
74898;SDS011;63458;48.210;16.338;2023-02-28T12:36:46;13.93;;;9.95;;
74898;SDS011;63458;48.210;16.338;2023-02-28T12:39:26;14.73;;;10.82;;
74898;SDS011;63458;48.210;16.338;2023-02-28T12:41:59;14.88;;;10.20;;
74898;SDS011;63458;48.210;16.338;2023-02-28T12:44:34;16.27;;;9.98;;
74898;SDS011;63458;48.210;16.338;2023-02-28T12:47:02;15.43;;;11.00;;
74898;SDS011;63458;48.210;16.338;2023-02-28T12:49:32;15.50;;;10.40;;
74898;SDS011;63458;48.210;16.338;2023-02-28T12:51:59;13.77;;;11.23;;
74898;SDS011;63458;48.210;16.338;2023-02-28T12:54:29;17.13;;;10.25;;
74898;SDS011;63458;48.210;16.338;2023-02-28T12:59:45;13.38;;;9.20;;
74898;SDS011;63458;48.210;16.338;2023-02-28T13:09:33;13.63;;;8.48;;
74898;SDS011;63458;48.210;16.338;2023-02-28T13:11:59;13.80;;;8.98;;
74898;SDS011;63458;48.210;16.338;2023-02-28T13:24:47;14.40;;;8.30;;
74898;SDS011;63458;48.210;16.338;2023-02-28T13:29:41;14.10;;;8.35;;
74898;SDS011;63458;48.210;16.338;2023-02-28T13:34:34;15.05;;;8.93;;
74898;SDS011;63458;48.210;16.338;2023-02-28T13:39:49;14.30;;;9.13;;
74898;SDS011;63458;48.210;16.338;2023-02-28T13:45:36;14.07;;;8.75;;
74898;SDS011;63458;48.210;16.338;2023-02-28T13:47:41;15.07;;;9.38;;
74898;SDS011;63458;48.210;16.338;2023-02-28T13:50:14;14.15;;;8.00;;
74898;SDS011;63458;48.210;16.338;2023-02-28T14:06:27;13.90;;;8.95;;
74898;SDS011;63458;48.210;16.338;2023-02-28T14:08:59;13.30;;;9.32;;
74898;SDS011;63458;48.210;16.338;2023-02-28T14:13:52;13.95;;;8.32;;
74898;SDS011;63458;48.210;16.338;2023-02-28T14:16:21;15.50;;;8.95;;
74898;SDS011;63458;48.210;16.338;2023-02-28T14:21:21;15.38;;;9.18;;
74898;SDS011;63458;48.210;16.338;2023-02-28T14:37:20;17.13;;;11.10;;
74898;SDS011;63458;48.210;16.338;2023-02-28T14:39:50;18.10;;;11.45;;
74898;SDS011;63458;48.210;16.338;2023-02-28T14:42:35;15.63;;;9.20;;
74898;SDS011;63458;48.210;16.338;2023-02-28T14:47:34;16.58;;;9.88;;
74898;SDS011;63458;48.210;16.338;2023-02-28T14:50:01;16.80;;;10.63;;
74898;SDS011;63458;48.210;16.338;2023-02-28T14:52:29;18.30;;;11.15;;
74898;SDS011;63458;48.210;16.338;2023-02-28T14:55:00;18.17;;;10.68;;
74898;SDS011;63458;48.210;16.338;2023-02-28T14:57:29;14.35;;;10.82;;
74898;SDS011;63458;48.210;16.338;2023-02-28T14:59:59;16.40;;;10.57;;
74898;SDS011;63458;48.210;16.338;2023-02-28T15:02:26;16.25;;;10.10;;
74898;SDS011;63458;48.210;16.338;2023-02-28T15:04:57;15.88;;;9.70;;
74898;SDS011;63458;48.210;16.338;2023-02-28T15:07:23;32.75;;;18.73;;
74898;SDS011;63458;48.210;16.338;2023-02-28T15:12:37;15.98;;;10.27;;
74898;SDS011;63458;48.210;16.338;2023-02-28T15:15:05;16.92;;;9.95;;
74898;SDS011;63458;48.210;16.338;2023-02-28T15:17:32;18.02;;;10.85;;
74898;SDS011;63458;48.210;16.338;2023-02-28T15:19:59;16.00;;;10.52;;
74898;SDS011;63458;48.210;16.338;2023-02-28T15:22:27;15.45;;;10.20;;
74898;SDS011;63458;48.210;16.338;2023-02-28T15:24:54;17.70;;;12.25;;
74898;SDS011;63458;48.210;16.338;2023-02-28T15:29:48;18.65;;;10.90;;
74898;SDS011;63458;48.210;16.338;2023-02-28T15:32:34;19.48;;;12.32;;
74898;SDS011;63458;48.210;16.338;2023-02-28T15:35:18;16.02;;;9.68;;
74898;SDS011;63458;48.210;16.338;2023-02-28T15:37:46;16.45;;;10.45;;
74898;SDS011;63458;48.210;16.338;2023-02-28T15:40:17;18.70;;;11.02;;
74898;SDS011;63458;48.210;16.338;2023-02-28T15:42:57;16.23;;;11.00;;
74898;SDS011;63458;48.210;16.338;2023-02-28T15:47:49;19.67;;;11.88;;
74898;SDS011;63458;48.210;16.338;2023-02-28T15:50:15;17.77;;;10.52;;
74898;SDS011;63458;48.210;16.338;2023-02-28T15:52:43;17.90;;;10.35;;
74898;SDS011;63458;48.210;16.338;2023-02-28T15:55:26;14.65;;;9.82;;
74898;SDS011;63458;48.210;16.338;2023-02-28T15:57:53;15.40;;;9.88;;
74898;SDS011;63458;48.210;16.338;2023-02-28T16:00:22;19.92;;;12.50;;
74898;SDS011;63458;48.210;16.338;2023-02-28T16:02:49;16.40;;;10.48;;
74898;SDS011;63458;48.210;16.338;2023-02-28T16:05:33;17.20;;;11.02;;
74898;SDS011;63458;48.210;16.338;2023-02-28T16:08:14;23.52;;;14.15;;
74898;SDS011;63458;48.210;16.338;2023-02-28T16:10:41;16.58;;;12.15;;
74898;SDS011;63458;48.210;16.338;2023-02-28T16:13:08;16.27;;;12.35;;
74898;SDS011;63458;48.210;16.338;2023-02-28T16:15:41;15.40;;;10.55;;
74898;SDS011;63458;48.210;16.338;2023-02-28T16:18:08;13.57;;;9.38;;
74898;SDS011;63458;48.210;16.338;2023-02-28T16:23:01;18.17;;;10.75;;
74898;SDS011;63458;48.210;16.338;2023-02-28T16:25:34;15.82;;;10.45;;
74898;SDS011;63458;48.210;16.338;2023-02-28T16:28:01;18.55;;;10.38;;
74898;SDS011;63458;48.210;16.338;2023-02-28T16:30:28;17.05;;;10.60;;
74898;SDS011;63458;48.210;16.338;2023-02-28T16:32:57;14.80;;;10.02;;
74898;SDS011;63458;48.210;16.338;2023-02-28T16:35:23;20.17;;;12.27;;
74898;SDS011;63458;48.210;16.338;2023-02-28T16:37:53;20.98;;;11.68;;
74898;SDS011;63458;48.210;16.338;2023-02-28T16:40:20;22.05;;;11.57;;
74898;SDS011;63458;48.210;16.338;2023-02-28T16:42:48;21.40;;;12.32;;
74898;SDS011;63458;48.210;16.338;2023-02-28T16:45:18;15.60;;;10.85;;
74898;SDS011;63458;48.210;16.338;2023-02-28T16:47:46;16.30;;;10.32;;
74898;SDS011;63458;48.210;16.338;2023-02-28T16:50:13;16.30;;;10.02;;
74898;SDS011;63458;48.210;16.338;2023-02-28T16:52:39;18.15;;;10.82;;
74898;SDS011;63458;48.210;16.338;2023-02-28T16:55:05;15.38;;;10.95;;
74898;SDS011;63458;48.210;16.338;2023-02-28T16:57:31;16.60;;;10.20;;
74898;SDS011;63458;48.210;16.338;2023-02-28T16:59:57;17.75;;;11.25;;
74898;SDS011;63458;48.210;16.338;2023-02-28T17:02:23;27.52;;;16.38;;
74898;SDS011;63458;48.210;16.338;2023-02-28T17:04:49;19.92;;;12.48;;
74898;SDS011;63458;48.210;16.338;2023-02-28T17:07:16;17.17;;;10.93;;
74898;SDS011;63458;48.210;16.338;2023-02-28T17:09:43;18.75;;;11.80;;
74898;SDS011;63458;48.210;16.338;2023-02-28T17:14:36;22.00;;;13.20;;
74898;SDS011;63458;48.210;16.338;2023-02-28T17:17:06;19.17;;;12.25;;
74898;SDS011;63458;48.210;16.338;2023-02-28T17:19:32;17.88;;;11.95;;
74898;SDS011;63458;48.210;16.338;2023-02-28T17:22:01;19.27;;;12.32;;
74898;SDS011;63458;48.210;16.338;2023-02-28T17:24:28;17.08;;;10.68;;